createdAt,value
2023-03-13T00:00:33.039Z,10.67
2023-03-13T00:03:35.064Z,10.32
2023-03-13T00:06:38.027Z,8.98
2023-03-13T00:09:39.997Z,9.10
2023-03-13T00:12:41.998Z,7.95
2023-03-13T00:15:44.015Z,8.77
2023-03-13T00:18:47.332Z,6.93
2023-03-13T00:21:49.437Z,9.23
2023-03-13T00:24:51.453Z,8.65
2023-03-13T00:27:53.592Z,8.77
2023-03-13T00:31:09.113Z,8.93
2023-03-13T00:34:11.258Z,13.30
2023-03-13T00:37:13.362Z,10.48
2023-03-13T00:40:15.457Z,8.73
2023-03-13T00:43:17.491Z,9.57
2023-03-13T00:46:21.341Z,7.38
2023-03-13T00:49:23.488Z,11.23
2023-03-13T00:52:28.217Z,7.45
2023-03-13T00:55:30.233Z,7.88
2023-03-13T00:58:34.194Z,6.80
2023-03-13T01:01:36.830Z,9.03
2023-03-13T01:04:38.819Z,7.10
2023-03-13T01:07:40.892Z,5.60
2023-03-13T01:10:42.984Z,10.07
2023-03-13T01:13:45.608Z,7.70
2023-03-13T01:16:47.708Z,7.50
2023-03-13T01:19:50.102Z,9.52
2023-03-13T01:22:52.352Z,8.52
2023-03-13T01:25:55.426Z,8.90
2023-03-13T01:28:57.697Z,7.63
2023-03-13T01:31:59.743Z,4.80
2023-03-13T01:35:01.748Z,9.23
2023-03-13T01:38:03.810Z,7.20
2023-03-13T01:41:06.607Z,10.20
2023-03-13T01:44:41.349Z,7.68
2023-03-13T01:47:43.602Z,9.75
2023-03-13T01:50:50.543Z,8.60
2023-03-13T01:54:06.626Z,8.70
2023-03-13T01:57:15.178Z,6.97
2023-03-13T02:00:22.700Z,6.07
2023-03-13T02:03:26.833Z,7.40
2023-03-13T02:06:31.078Z,4.78
2023-03-13T02:09:34.249Z,6.70
2023-03-13T02:12:37.869Z,7.50
2023-03-13T02:15:40.884Z,9.48
2023-03-13T02:18:44.227Z,5.95
2023-03-13T02:21:59.520Z,12.93
2023-03-13T02:25:20.298Z,6.97
2023-03-13T02:28:27.844Z,15.93
2023-03-13T02:31:31.720Z,11.27
2023-03-13T02:34:35.698Z,9.83
2023-03-13T02:37:38.522Z,8.50
2023-03-13T02:40:45.348Z,6.40
2023-03-13T02:43:47.989Z,9.47
2023-03-13T02:46:54.867Z,6.38
2023-03-13T02:50:01.065Z,8.90
2023-03-13T02:53:05.126Z,8.05
2023-03-13T02:56:07.635Z,3.30
2023-03-13T02:59:10.515Z,7.40
2023-03-13T03:02:15.761Z,6.43
2023-03-13T03:05:17.876Z,6.83
2023-03-13T03:08:19.842Z,10.02
2023-03-13T03:11:22.038Z,7.70
2023-03-13T03:14:30.168Z,8.77
2023-03-13T03:17:33.781Z,12.02
2023-03-13T03:20:35.829Z,4.55
2023-03-13T03:23:38.021Z,7.75
2023-03-13T03:26:40.224Z,8.43
2023-03-13T03:29:48.517Z,8.05
2023-03-13T03:32:51.523Z,8.63
2023-03-13T03:35:59.924Z,8.00
2023-03-13T03:39:02.133Z,8.45
2023-03-13T03:42:05.900Z,10.10
2023-03-13T03:45:08.652Z,8.93
2023-03-13T03:48:10.811Z,8.48
2023-03-13T03:51:13.230Z,9.25
2023-03-13T03:54:17.938Z,9.20
2023-03-13T03:57:19.991Z,9.60
2023-03-13T04:00:22.306Z,8.63
2023-03-13T04:03:28.241Z,9.65
2023-03-13T04:06:30.966Z,8.83
2023-03-13T04:09:33.480Z,5.00
2023-03-13T04:12:37.685Z,6.88
2023-03-13T04:15:40.272Z,8.67
2023-03-13T04:18:44.435Z,7.97
2023-03-13T04:21:46.786Z,9.32
2023-03-13T04:24:52.567Z,10.20
2023-03-13T04:27:56.664Z,10.07
2023-03-13T04:31:02.770Z,11.35
2023-03-13T04:34:14.901Z,7.18
2023-03-13T04:37:43.698Z,5.57
2023-03-13T04:41:04.070Z,9.57
2023-03-13T04:44:24.537Z,9.50
2023-03-13T04:47:34.912Z,9.47
2023-03-13T04:51:02.637Z,7.97
2023-03-13T04:54:33.839Z,8.73
2023-03-13T04:57:44.908Z,8.88
2023-03-13T05:00:59.664Z,7.15
2023-03-13T05:04:21.896Z,8.35
2023-03-13T05:07:48.948Z,7.20
2023-03-13T05:11:29.397Z,6.57
2023-03-13T05:14:34.139Z,6.07
2023-03-13T05:17:56.376Z,6.15
2023-03-13T05:21:13.548Z,9.70
2023-03-13T05:24:34.126Z,5.03
2023-03-13T05:27:36.167Z,10.80
2023-03-13T05:30:56.575Z,10.45
2023-03-13T05:34:13.311Z,9.65
2023-03-13T05:37:27.118Z,13.18
2023-03-13T05:40:40.535Z,10.05
2023-03-13T05:44:01.201Z,11.13
2023-03-13T05:47:23.569Z,10.48
2023-03-13T05:50:55.033Z,8.23
2023-03-13T05:54:15.516Z,7.10
2023-03-13T05:57:35.829Z,10.77
2023-03-13T06:00:44.367Z,11.73
2023-03-13T06:04:06.495Z,10.95
2023-03-13T06:07:11.461Z,10.27
2023-03-13T06:10:13.754Z,10.38
2023-03-13T06:13:20.051Z,9.60
2023-03-13T06:16:25.495Z,14.93
2023-03-13T06:19:32.396Z,10.70
2023-03-13T06:22:34.617Z,10.55
2023-03-13T06:25:36.752Z,9.53
2023-03-13T06:28:39.006Z,9.38
2023-03-13T06:31:41.211Z,7.07
2023-03-13T06:34:43.371Z,11.20
2023-03-13T06:37:46.329Z,9.10
2023-03-13T06:40:48.383Z,6.95
2023-03-13T06:43:50.618Z,11.85
2023-03-13T06:46:52.750Z,8.10
2023-03-13T06:49:54.908Z,11.88
2023-03-13T06:53:07.064Z,8.52
2023-03-13T06:56:15.951Z,10.87
2023-03-13T06:59:18.061Z,11.20
2023-03-13T07:02:29.616Z,9.05
2023-03-13T07:05:34.774Z,5.85
2023-03-13T07:08:37.345Z,13.45
2023-03-13T07:11:39.590Z,7.40
2023-03-13T07:14:41.743Z,9.90
2023-03-13T07:17:43.823Z,9.10
2023-03-13T07:20:51.732Z,8.68
2023-03-13T07:23:54.143Z,8.05
2023-03-13T07:27:06.200Z,10.93
2023-03-13T07:30:10.146Z,8.82
2023-03-13T07:33:12.197Z,10.00
2023-03-13T07:36:15.630Z,6.72
2023-03-13T07:39:17.854Z,8.97
2023-03-13T07:42:20.154Z,3.97
2023-03-13T07:45:22.291Z,5.35
2023-03-13T07:48:25.366Z,7.60
2023-03-13T07:51:42.101Z,6.73
2023-03-13T07:54:45.734Z,7.17
2023-03-13T07:57:47.845Z,8.85
2023-03-13T08:00:50.265Z,11.60
2023-03-13T08:03:53.244Z,8.90
2023-03-13T08:06:55.536Z,7.93
2023-03-13T08:09:57.649Z,6.63
2023-03-13T08:12:59.777Z,8.65
2023-03-13T08:16:02.833Z,7.43
2023-03-13T08:19:06.201Z,8.13
2023-03-13T08:22:08.333Z,10.70
2023-03-13T08:25:10.423Z,7.55
2023-03-13T08:28:12.626Z,8.75
2023-03-13T08:31:16.718Z,6.50
2023-03-13T08:34:19.157Z,9.02
2023-03-13T08:37:21.262Z,6.88
2023-03-13T08:40:23.380Z,8.20
2023-03-13T08:43:25.430Z,6.43
2023-03-13T08:46:29.213Z,5.10
2023-03-13T08:49:31.487Z,9.32
2023-03-13T08:52:33.576Z,8.00
2023-03-13T08:55:35.642Z,8.80
2023-03-13T08:58:37.819Z,6.60
2023-03-13T09:01:39.883Z,7.20
2023-03-13T09:04:41.990Z,8.63
2023-03-13T09:07:44.155Z,5.38
2023-03-13T09:10:46.429Z,5.63
2023-03-13T09:13:49.601Z,7.27
2023-03-13T09:16:52.523Z,15.03
2023-03-13T09:20:00.688Z,11.40
2023-03-13T09:23:03.241Z,8.10
2023-03-13T09:26:05.405Z,8.90
2023-03-13T09:29:07.599Z,6.67
2023-03-13T09:32:10.450Z,6.93
2023-03-13T09:35:12.588Z,7.30
2023-03-13T09:38:14.789Z,6.50
2023-03-13T09:41:16.841Z,6.90
2023-03-13T09:44:40.421Z,5.67
2023-03-13T09:47:44.706Z,6.33
2023-03-13T09:50:50.566Z,9.55
2023-03-13T09:54:01.404Z,8.35
2023-03-13T09:57:12.809Z,4.75
2023-03-13T10:00:20.110Z,7.07
2023-03-13T10:03:44.821Z,8.40
2023-03-13T10:06:48.812Z,9.65
2023-03-13T10:09:52.805Z,8.02
2023-03-13T10:12:58.109Z,7.03
2023-03-13T10:16:03.087Z,6.47
2023-03-13T10:19:12.905Z,4.73
2023-03-13T10:22:17.513Z,8.77
2023-03-13T10:25:27.277Z,7.07
2023-03-13T10:28:29.324Z,6.40
2023-03-13T10:31:35.288Z,6.87
2023-03-13T10:34:53.089Z,6.67
2023-03-13T10:38:00.996Z,7.22
2023-03-13T10:41:10.774Z,4.22
2023-03-13T10:44:17.124Z,6.95
2023-03-13T10:47:19.763Z,8.33
2023-03-13T10:50:23.013Z,7.07
2023-03-13T10:53:31.400Z,7.38
2023-03-13T10:56:33.865Z,7.00
2023-03-13T10:59:40.231Z,5.60
2023-03-13T11:02:44.684Z,5.57
2023-03-13T11:05:57.223Z,8.50
2023-03-13T11:09:04.583Z,7.95
2023-03-13T11:12:17.671Z,4.72
2023-03-13T11:15:40.002Z,7.20
2023-03-13T11:18:45.090Z,8.50
2023-03-13T11:21:50.605Z,10.93
2023-03-13T11:24:59.309Z,6.25
2023-03-13T11:28:21.558Z,5.05
2023-03-13T11:31:45.271Z,9.60
2023-03-13T11:34:51.124Z,4.60
2023-03-13T11:37:58.157Z,3.77
2023-03-13T11:41:21.463Z,5.53
2023-03-13T11:44:23.629Z,4.82
2023-03-13T11:47:44.212Z,7.43
2023-03-13T11:50:49.098Z,5.13
2023-03-13T11:53:57.175Z,4.27
2023-03-13T11:57:12.490Z,5.95
2023-03-13T12:00:50.034Z,4.88
2023-03-13T12:03:58.316Z,7.68
2023-03-13T12:07:06.964Z,8.63
2023-03-13T12:10:17.040Z,10.00
2023-03-13T12:13:19.145Z,6.20
2023-03-13T12:16:24.003Z,8.13
2023-03-13T12:19:31.198Z,4.32
2023-03-13T12:22:34.520Z,7.53
2023-03-13T12:25:51.897Z,6.43
2023-03-13T12:29:02.264Z,8.52
2023-03-13T12:32:16.800Z,4.80
2023-03-13T12:35:19.111Z,6.32
2023-03-13T12:38:24.675Z,5.07
2023-03-13T12:41:49.139Z,4.97
2023-03-13T12:44:51.435Z,3.95
2023-03-13T12:48:12.338Z,9.82
2023-03-13T12:51:23.348Z,9.30
2023-03-13T12:54:28.688Z,6.10
2023-03-13T12:57:30.813Z,5.00
2023-03-13T13:00:35.912Z,8.43
2023-03-13T13:03:39.655Z,5.22
2023-03-13T13:06:52.616Z,6.10
2023-03-13T13:10:00.752Z,5.87
2023-03-13T13:13:15.435Z,5.43
2023-03-13T13:16:19.800Z,5.13
2023-03-13T13:19:24.819Z,8.18
2023-03-13T13:22:39.190Z,5.93
2023-03-13T13:25:41.306Z,4.27
2023-03-13T13:28:44.095Z,6.60
2023-03-13T13:31:52.264Z,5.85
2023-03-13T13:34:55.754Z,6.20
2023-03-13T13:38:17.043Z,4.60
2023-03-13T13:41:19.058Z,4.77
2023-03-13T13:44:23.325Z,5.13
2023-03-13T13:47:26.988Z,4.20
2023-03-13T13:50:29.157Z,5.20
2023-03-13T13:53:33.407Z,5.32
2023-03-13T13:56:37.156Z,5.03
2023-03-13T13:59:46.917Z,7.80
2023-03-13T14:02:55.926Z,6.72
2023-03-13T14:06:02.165Z,9.45
2023-03-13T14:09:22.972Z,8.13
2023-03-13T14:12:30.030Z,7.63
2023-03-13T14:15:33.412Z,6.20
2023-03-13T14:18:35.527Z,5.28
2023-03-13T14:21:37.552Z,5.90
2023-03-13T14:24:39.646Z,8.52
2023-03-13T14:27:45.040Z,9.20
2023-03-13T14:30:48.563Z,11.83
2023-03-13T14:33:50.712Z,7.35
2023-03-13T14:37:01.437Z,5.60
2023-03-13T14:40:19.113Z,6.30
2023-03-13T14:43:33.399Z,6.43
2023-03-13T14:46:36.176Z,5.60
2023-03-13T14:49:38.546Z,8.15
2023-03-13T14:52:49.874Z,9.85
2023-03-13T14:56:09.633Z,9.48
2023-03-13T14:59:19.812Z,9.50
2023-03-13T15:02:24.266Z,11.23
2023-03-13T15:05:33.638Z,10.85
2023-03-13T15:08:37.784Z,12.05
2023-03-13T15:11:42.218Z,8.80
2023-03-13T15:14:45.716Z,11.53
2023-03-13T15:17:47.904Z,14.73
2023-03-13T15:20:54.741Z,8.07
2023-03-13T15:24:01.316Z,10.77
2023-03-13T15:27:03.396Z,10.70
2023-03-13T15:30:05.807Z,11.50
2023-03-13T15:33:12.410Z,12.17
2023-03-13T15:36:14.605Z,15.93
2023-03-13T15:39:20.047Z,13.40
2023-03-13T15:42:22.810Z,10.02
2023-03-13T15:45:24.965Z,11.53
2023-03-13T15:48:28.148Z,12.07
2023-03-13T15:51:30.919Z,15.00
2023-03-13T15:54:32.926Z,13.77
2023-03-13T15:57:35.673Z,20.33
2023-03-13T16:00:37.704Z,28.30
2023-03-13T16:03:40.106Z,17.13
2023-03-13T16:06:42.210Z,14.00
2023-03-13T16:09:44.510Z,12.80
2023-03-13T16:12:46.557Z,17.17
2023-03-13T16:15:49.212Z,15.23
2023-03-13T16:18:52.543Z,13.50
2023-03-13T16:21:54.545Z,14.63
2023-03-13T16:24:56.688Z,15.68
2023-03-13T16:27:59.003Z,21.67
2023-03-13T16:31:01.126Z,17.70
2023-03-13T16:34:03.721Z,18.60
2023-03-13T16:37:13.763Z,18.95
2023-03-13T16:40:16.607Z,15.68
2023-03-13T16:43:18.601Z,15.60
2023-03-13T16:46:21.846Z,15.70
2023-03-13T16:49:23.898Z,25.42
2023-03-13T16:52:25.940Z,34.28
2023-03-13T16:55:29.768Z,26.10
2023-03-13T16:58:31.835Z,18.33
2023-03-13T17:01:33.960Z,16.27
2023-03-13T17:04:36.101Z,19.05
2023-03-13T17:07:39.212Z,23.43
2023-03-13T17:10:41.239Z,25.33
2023-03-13T17:13:44.433Z,24.77
2023-03-13T17:16:47.276Z,18.58
2023-03-13T17:19:49.359Z,24.13
2023-03-13T17:22:51.444Z,20.53
2023-03-13T17:25:53.498Z,20.55
2023-03-13T17:28:57.097Z,27.77
2023-03-13T17:31:59.097Z,23.23
2023-03-13T17:35:01.187Z,25.43
2023-03-13T17:38:03.262Z,22.58
2023-03-13T17:41:05.564Z,27.73
2023-03-13T17:44:07.789Z,21.65
2023-03-13T17:47:17.509Z,27.50
2023-03-13T17:50:29.226Z,18.63
2023-03-13T17:53:31.246Z,23.50
2023-03-13T17:56:36.387Z,26.52
2023-03-13T17:59:38.455Z,29.00
2023-03-13T18:02:40.520Z,23.30
2023-03-13T18:05:42.599Z,22.13
2023-03-13T18:08:45.046Z,16.15
2023-03-13T18:11:48.415Z,17.53
2023-03-13T18:14:50.470Z,15.48
2023-03-13T18:17:52.621Z,17.40
2023-03-13T18:20:54.869Z,14.18
2023-03-13T18:23:58.636Z,14.77
2023-03-13T18:27:00.609Z,15.18
2023-03-13T18:30:02.669Z,15.98
2023-03-13T18:33:04.700Z,14.88
2023-03-13T18:36:14.729Z,11.73
2023-03-13T18:39:17.492Z,11.27
2023-03-13T18:42:19.633Z,13.88
2023-03-13T18:45:23.445Z,14.50
2023-03-13T18:48:25.481Z,17.48
2023-03-13T18:51:28.256Z,12.65
2023-03-13T18:54:30.353Z,15.45
2023-03-13T18:57:32.734Z,11.90
2023-03-13T19:00:34.807Z,9.95
2023-03-13T19:03:36.886Z,13.82
2023-03-13T19:06:38.934Z,15.45
2023-03-13T19:09:43.877Z,16.03
2023-03-13T19:12:47.123Z,17.65
2023-03-13T19:15:49.163Z,14.60
2023-03-13T19:18:51.911Z,11.33
2023-03-13T19:21:57.211Z,13.75
2023-03-13T19:24:59.214Z,10.88
2023-03-13T19:28:01.260Z,14.63
2023-03-13T19:31:03.264Z,10.07
2023-03-13T19:34:05.417Z,14.38
2023-03-13T19:37:10.072Z,13.18
2023-03-13T19:40:17.045Z,12.20
2023-03-13T19:43:19.078Z,14.48
2023-03-13T19:46:23.323Z,14.48
2023-03-13T19:49:25.711Z,15.27
2023-03-13T19:52:27.764Z,11.77
2023-03-13T19:55:29.758Z,12.15
2023-03-13T19:58:31.923Z,14.05
2023-03-13T20:01:34.157Z,9.45
2023-03-13T20:04:36.357Z,11.27
2023-03-13T20:07:38.584Z,10.90
2023-03-13T20:10:40.701Z,17.95
2023-03-13T20:13:42.817Z,11.37
2023-03-13T20:16:47.464Z,13.57
2023-03-13T20:19:49.465Z,13.60
2023-03-13T20:22:52.530Z,14.63
2023-03-13T20:25:54.739Z,11.65
2023-03-13T20:28:57.227Z,10.18
2023-03-13T20:32:01.317Z,12.63
2023-03-13T20:35:07.802Z,15.27
2023-03-13T20:38:09.828Z,11.18
2023-03-13T20:41:12.243Z,15.52
2023-03-13T20:44:14.369Z,22.53
2023-03-13T20:47:17.038Z,13.43
2023-03-13T20:50:19.823Z,13.52
2023-03-13T20:53:22.467Z,11.97
2023-03-13T20:56:24.740Z,11.55
2023-03-13T20:59:26.768Z,10.85
2023-03-13T21:02:28.795Z,11.40
2023-03-13T21:05:30.809Z,9.98
2023-03-13T21:08:32.809Z,12.88
2023-03-13T21:11:34.895Z,12.80
2023-03-13T21:14:37.325Z,12.93
2023-03-13T21:17:39.862Z,11.70
2023-03-13T21:20:41.881Z,11.68
2023-03-13T21:23:44.025Z,10.70
2023-03-13T21:26:46.142Z,8.77
2023-03-13T21:29:50.827Z,7.22
2023-03-13T21:32:54.474Z,10.07
2023-03-13T21:35:56.766Z,9.07
2023-03-13T21:38:58.962Z,7.03
2023-03-13T21:42:01.159Z,12.40
2023-03-13T21:45:06.690Z,10.50
2023-03-13T21:48:08.735Z,7.00
2023-03-13T21:51:11.116Z,9.50
2023-03-13T21:54:13.180Z,14.70
2023-03-13T21:57:15.820Z,9.85
2023-03-13T22:00:17.953Z,10.30
2023-03-13T22:03:19.942Z,9.68
2023-03-13T22:06:22.787Z,11.63
2023-03-13T22:09:24.797Z,10.95
2023-03-13T22:12:26.917Z,8.32
2023-03-13T22:15:28.918Z,9.83
2023-03-13T22:18:30.924Z,10.82
2023-03-13T22:21:32.949Z,9.50
2023-03-13T22:24:35.021Z,12.27
2023-03-13T22:27:36.998Z,9.63
2023-03-13T22:30:39.213Z,10.05
2023-03-13T22:33:41.260Z,10.15
2023-03-13T22:36:43.316Z,10.07
2023-03-13T22:39:45.385Z,12.27
2023-03-13T22:42:47.452Z,11.07
2023-03-13T22:45:49.507Z,11.07
2023-03-13T22:48:51.552Z,10.65
2023-03-13T22:51:53.523Z,9.10
2023-03-13T22:54:55.547Z,8.00
2023-03-13T22:57:57.538Z,10.10
2023-03-13T23:00:59.570Z,8.52
2023-03-13T23:04:01.651Z,7.30
2023-03-13T23:07:03.657Z,8.10
2023-03-13T23:10:06.067Z,7.43
2023-03-13T23:13:08.054Z,13.27
2023-03-13T23:16:11.313Z,9.77
2023-03-13T23:19:13.339Z,8.80
2023-03-13T23:22:18.121Z,8.73
2023-03-13T23:25:20.342Z,9.53
2023-03-13T23:28:22.444Z,8.90
2023-03-13T23:31:24.515Z,9.57
2023-03-13T23:34:26.529Z,10.82
2023-03-13T23:37:28.541Z,12.02
2023-03-13T23:40:30.553Z,8.77
2023-03-13T23:43:32.963Z,8.73
2023-03-13T23:46:34.959Z,6.70
2023-03-13T23:49:37.027Z,9.98
2023-03-13T23:52:39.509Z,11.52
2023-03-13T23:55:41.500Z,8.37
2023-03-13T23:58:43.716Z,11.57
